sensor_id;sensor_type;location;lat;lon;timestamp;pressure;altitude;pressure_sealevel;temperature;humidity
3697;BME280;60662;48.810;8.872;2024-01-25T07:35:59;97899.75;;;5.24;96.53
3697;BME280;60662;48.810;8.872;2024-01-25T07:37:00;97894.53;;;5.41;95.31
3697;BME280;60662;48.810;8.872;2024-01-25T07:38:02;97907.28;;;5.81;94.59
3697;BME280;60662;48.810;8.872;2024-01-25T07:40:35;97896.59;;;6.31;91.12
3697;BME280;60662;48.810;8.872;2024-01-25T07:41:36;97910.19;;;6.64;90.02
3697;BME280;60662;48.810;8.872;2024-01-25T07:43:37;97912.31;;;7.12;87.08
3697;BME280;60662;48.810;8.872;2024-01-25T07:44:39;97913.97;;;7.21;86.13
3697;BME280;60662;48.810;8.872;2024-01-25T07:45:40;97904.44;;;7.19;85.15
3697;BME280;60662;48.810;8.872;2024-01-25T07:46:42;97916.28;;;7.47;84.60
3697;BME280;60662;48.810;8.872;2024-01-25T07:47:44;97921.31;;;7.61;83.61
3697;BME280;60662;48.810;8.872;2024-01-25T07:48:45;97927.97;;;7.80;82.88
3697;BME280;60662;48.810;8.872;2024-01-25T07:49:48;97922.44;;;8.07;81.96
3697;BME280;60662;48.810;8.872;2024-01-25T07:50:50;97931.88;;;8.14;81.04
3697;BME280;60662;48.810;8.872;2024-01-25T07:51:52;97923.03;;;8.24;80.20
3697;BME280;60662;48.810;8.872;2024-01-25T07:52:54;97927.03;;;8.45;79.52
3697;BME280;60662;48.810;8.872;2024-01-25T07:53:56;97928.69;;;8.54;78.99
3697;BME280;60662;48.810;8.872;2024-01-25T07:54:57;97929.22;;;8.75;78.24
3697;BME280;60662;48.810;8.872;2024-01-25T07:55:59;97922.22;;;8.77;78.04
3697;BME280;60662;48.810;8.872;2024-01-25T07:57:01;97929.88;;;8.88;77.31
3697;BME280;60662;48.810;8.872;2024-01-25T07:58:02;97919.34;;;8.94;76.97
3697;BME280;60662;48.810;8.872;2024-01-25T07:59:04;97922.88;;;8.90;76.56
3697;BME280;60662;48.810;8.872;2024-01-25T08:00:06;97922.97;;;8.83;76.72
3697;BME280;60662;48.810;8.872;2024-01-25T08:01:09;97934.63;;;9.12;75.79
3697;BME280;60662;48.810;8.872;2024-01-25T08:02:11;97926.72;;;9.19;75.63
3697;BME280;60662;48.810;8.872;2024-01-25T08:03:13;97925.31;;;9.01;75.50
3697;BME280;60662;48.810;8.872;2024-01-25T08:04:15;97921.69;;;9.09;75.22
3697;BME280;60662;48.810;8.872;2024-01-25T08:05:16;97917.63;;;9.38;74.56
3697;BME280;60662;48.810;8.872;2024-01-25T08:06:18;97917.66;;;9.37;74.40
3697;BME280;60662;48.810;8.872;2024-01-25T08:07:20;97921.41;;;9.23;75.01
3697;BME280;60662;48.810;8.872;2024-01-25T08:08:21;97916.72;;;8.95;74.80
3697;BME280;60662;48.810;8.872;2024-01-25T08:09:23;97906.16;;;9.03;74.88
3697;BME280;60662;48.810;8.872;2024-01-25T08:10:25;97909.31;;;9.19;74.90
3697;BME280;60662;48.810;8.872;2024-01-25T08:11:26;97913.22;;;9.42;73.52
3697;BME280;60662;48.810;8.872;2024-01-25T08:12:28;97917.75;;;9.34;73.23
3697;BME280;60662;48.810;8.872;2024-01-25T08:13:30;97905.94;;;9.59;72.79
3697;BME280;60662;48.810;8.872;2024-01-25T08:14:35;97914.34;;;9.74;72.33
3697;BME280;60662;48.810;8.872;2024-01-25T08:15:37;97910.59;;;9.86;71.95
3697;BME280;60662;48.810;8.872;2024-01-25T08:16:38;97904.84;;;9.70;72.11
3697;BME280;60662;48.810;8.872;2024-01-25T08:17:40;97906.97;;;9.91;71.35
3697;BME280;60662;48.810;8.872;2024-01-25T08:18:42;97907.06;;;9.88;71.00
3697;BME280;60662;48.810;8.872;2024-01-25T08:19:45;97900.47;;;10.11;70.15
3697;BME280;60662;48.810;8.872;2024-01-25T08:20:51;97901.59;;;10.38;69.83
3697;BME280;60662;48.810;8.872;2024-01-25T08:21:53;97905.84;;;10.44;69.60
3697;BME280;60662;48.810;8.872;2024-01-25T08:22:54;97904.66;;;10.56;69.80
3697;BME280;60662;48.810;8.872;2024-01-25T08:23:56;97899.66;;;10.83;68.63
3697;BME280;60662;48.810;8.872;2024-01-25T08:24:58;97883.38;;;10.71;68.27
3697;BME280;60662;48.810;8.872;2024-01-25T08:25:59;97893.25;;;10.60;68.53
3697;BME280;60662;48.810;8.872;2024-01-25T08:27:01;97897.06;;;10.47;68.90
3697;BME280;60662;48.810;8.872;2024-01-25T08:28:03;97891.09;;;10.41;69.59
3697;BME280;60662;48.810;8.872;2024-01-25T08:29:04;97888.34;;;10.46;69.16
3697;BME280;60662;48.810;8.872;2024-01-25T08:30:06;97884.44;;;10.26;69.74
3697;BME280;60662;48.810;8.872;2024-01-25T08:31:08;97879.00;;;10.37;69.84
3697;BME280;60662;48.810;8.872;2024-01-25T08:32:10;97876.56;;;10.28;69.90
3697;BME280;60662;48.810;8.872;2024-01-25T08:33:11;97888.03;;;10.22;70.08
3697;BME280;60662;48.810;8.872;2024-01-25T08:34:13;97879.13;;;10.31;69.79
3697;BME280;60662;48.810;8.872;2024-01-25T08:35:15;97890.97;;;10.48;69.40
3697;BME280;60662;48.810;8.872;2024-01-25T08:36:17;97890.13;;;10.45;69.00
3697;BME280;60662;48.810;8.872;2024-01-25T08:37:19;97879.28;;;10.95;68.12
3697;BME280;60662;48.810;8.872;2024-01-25T08:38:21;97882.94;;;11.53;66.80
3697;BME280;60662;48.810;8.872;2024-01-25T08:39:22;97883.16;;;11.75;65.85
3697;BME280;60662;48.810;8.872;2024-01-25T08:40:24;97873.44;;;12.08;64.47
3697;BME280;60662;48.810;8.872;2024-01-25T08:41:30;97882.03;;;12.14;64.89
3697;BME280;60662;48.810;8.872;2024-01-25T08:42:33;97882.59;;;12.23;64.13
3697;BME280;60662;48.810;8.872;2024-01-25T08:43:35;97885.19;;;11.95;64.97
3697;BME280;60662;48.810;8.872;2024-01-25T08:44:38;97886.88;;;12.80;62.36
3697;BME280;60662;48.810;8.872;2024-01-25T08:45:40;97884.66;;;13.19;62.03
3697;BME280;60662;48.810;8.872;2024-01-25T08:46:41;97881.53;;;13.59;60.74
3697;BME280;60662;48.810;8.872;2024-01-25T08:47:45;97884.19;;;13.32;60.93
3697;BME280;60662;48.810;8.872;2024-01-25T08:48:47;97877.44;;;13.01;61.24
3697;BME280;60662;48.810;8.872;2024-01-25T08:49:49;97877.09;;;13.10;61.93
3697;BME280;60662;48.810;8.872;2024-01-25T08:50:50;97876.72;;;12.96;61.65
3697;BME280;60662;48.810;8.872;2024-01-25T08:51:54;97884.59;;;13.21;61.51
3697;BME280;60662;48.810;8.872;2024-01-25T08:52:56;97882.25;;;13.13;61.08
3697;BME280;60662;48.810;8.872;2024-01-25T08:53:58;97890.00;;;13.16;60.97
3697;BME280;60662;48.810;8.872;2024-01-25T08:54:59;97893.38;;;12.95;61.49
3697;BME280;60662;48.810;8.872;2024-01-25T08:56:01;97893.00;;;12.80;62.04
3697;BME280;60662;48.810;8.872;2024-01-25T08:57:06;97896.00;;;13.20;61.44
3697;BME280;60662;48.810;8.872;2024-01-25T08:58:08;97894.94;;;13.26;61.38
3697;BME280;60662;48.810;8.872;2024-01-25T08:59:09;97907.44;;;13.68;60.67
3697;BME280;60662;48.810;8.872;2024-01-25T09:00:11;97899.19;;;13.77;60.15
3697;BME280;60662;48.810;8.872;2024-01-25T09:01:13;97913.13;;;13.79;59.57
3697;BME280;60662;48.810;8.872;2024-01-25T09:02:15;97906.69;;;14.10;58.94
3697;BME280;60662;48.810;8.872;2024-01-25T09:03:16;97907.25;;;13.73;59.65
3697;BME280;60662;48.810;8.872;2024-01-25T09:04:18;97913.81;;;14.08;59.14
3697;BME280;60662;48.810;8.872;2024-01-25T09:05:21;97912.22;;;13.31;60.78
3697;BME280;60662;48.810;8.872;2024-01-25T09:06:23;97910.56;;;13.78;60.19
3697;BME280;60662;48.810;8.872;2024-01-25T09:07:25;97912.22;;;13.80;59.89
3697;BME280;60662;48.810;8.872;2024-01-25T09:08:26;97922.66;;;14.06;59.13
3697;BME280;60662;48.810;8.872;2024-01-25T09:09:28;97926.88;;;14.10;59.04
3697;BME280;60662;48.810;8.872;2024-01-25T09:10:30;97917.69;;;13.74;59.48
3697;BME280;60662;48.810;8.872;2024-01-25T09:11:31;97927.47;;;14.16;58.88
3697;BME280;60662;48.810;8.872;2024-01-25T09:12:34;97933.91;;;14.53;58.43
3697;BME280;60662;48.810;8.872;2024-01-25T09:13:36;97934.47;;;14.62;58.24
3697;BME280;60662;48.810;8.872;2024-01-25T09:14:46;97933.44;;;14.44;57.89
3697;BME280;60662;48.810;8.872;2024-01-25T09:15:48;97926.03;;;14.31;58.09
3697;BME280;60662;48.810;8.872;2024-01-25T09:16:49;97933.91;;;14.53;57.95
3697;BME280;60662;48.810;8.872;2024-01-25T09:17:51;97930.13;;;14.61;57.73
3697;BME280;60662;48.810;8.872;2024-01-25T09:18:53;97920.72;;;14.77;57.07
3697;BME280;60662;48.810;8.872;2024-01-25T09:19:55;97927.03;;;14.73;57.45
3697;BME280;60662;48.810;8.872;2024-01-25T09:21:00;97929.31;;;15.24;56.93
3697;BME280;60662;48.810;8.872;2024-01-25T09:22:02;97932.31;;;14.94;56.37
3697;BME280;60662;48.810;8.872;2024-01-25T09:23:05;97931.00;;;15.25;56.42
3697;BME280;60662;48.810;8.872;2024-01-25T09:24:07;97928.63;;;15.39;55.96
3697;BME280;60662;48.810;8.872;2024-01-25T09:25:08;97928.63;;;15.39;55.96
3697;BME280;60662;48.810;8.872;2024-01-25T09:26:10;97928.63;;;15.39;55.96
3697;BME280;60662;48.810;8.872;2024-01-25T09:27:12;97932.31;;;15.14;56.44
3697;BME280;60662;48.810;8.872;2024-01-25T09:28:14;97931.91;;;15.44;55.97
3697;BME280;60662;48.810;8.872;2024-01-25T09:29:16;97931.91;;;15.44;55.97
3697;BME280;60662;48.810;8.872;2024-01-25T09:30:18;97931.91;;;15.44;55.97
3697;BME280;60662;48.810;8.872;2024-01-25T09:31:19;97931.91;;;15.44;55.97
3697;BME280;60662;48.810;8.872;2024-01-25T09:32:21;97933.28;;;14.91;56.97
3697;BME280;60662;48.810;8.872;2024-01-25T09:33:23;97927.63;;;15.00;56.88
3697;BME280;60662;48.810;8.872;2024-01-25T09:34:24;97936.41;;;14.57;57.25
3697;BME280;60662;48.810;8.872;2024-01-25T09:35:27;97932.31;;;15.35;55.74
3697;BME280;60662;48.810;8.872;2024-01-25T09:36:29;97940.16;;;15.37;56.06
3697;BME280;60662;48.810;8.872;2024-01-25T09:37:31;97937.88;;;15.68;55.37
3697;BME280;60662;48.810;8.872;2024-01-25T09:38:33;97937.88;;;15.68;55.37
3697;BME280;60662;48.810;8.872;2024-01-25T09:39:35;97937.88;;;15.68;55.37
3697;BME280;60662;48.810;8.872;2024-01-25T09:40:38;97937.88;;;15.68;55.37
3697;BME280;60662;48.810;8.872;2024-01-25T09:41:40;97940.00;;;15.19;56.55
3697;BME280;60662;48.810;8.872;2024-01-25T09:42:44;55703.94;;;-145.49;100.00
3697;BME280;60662;48.810;8.872;2024-01-25T09:43:46;55703.94;;;-145.49;100.00
3697;BME280;60662;48.810;8.872;2024-01-25T09:44:48;55703.94;;;-145.49;100.00
3697;BME280;60662;48.810;8.872;2024-01-25T09:45:53;55703.94;;;-145.49;100.00
3697;BME280;60662;48.810;8.872;2024-01-25T09:46:58;55703.94;;;-145.49;100.00
3697;BME280;60662;48.810;8.872;2024-01-25T09:47:59;55703.94;;;-145.49;100.00
3697;BME280;60662;48.810;8.872;2024-01-25T09:49:02;55703.94;;;-145.49;100.00
3697;BME280;60662;48.810;8.872;2024-01-25T09:50:04;55703.94;;;-145.49;100.00
3697;BME280;60662;48.810;8.872;2024-01-25T09:51:06;55703.94;;;-145.49;100.00
3697;BME280;60662;48.810;8.872;2024-01-25T09:52:11;55703.94;;;-145.49;100.00
3697;BME280;60662;48.810;8.872;2024-01-25T09:53:20;55703.94;;;-145.49;100.00
3697;BME280;60662;48.810;8.872;2024-01-25T09:54:23;55703.94;;;-145.49;100.00
3697;BME280;60662;48.810;8.872;2024-01-25T09:55:26;55703.94;;;-145.49;100.00
3697;BME280;60662;48.810;8.872;2024-01-25T09:56:31;55703.94;;;-145.49;100.00
3697;BME280;60662;48.810;8.872;2024-01-25T09:57:35;55703.94;;;-145.49;100.00
3697;BME280;60662;48.810;8.872;2024-01-25T09:58:41;55703.94;;;-145.49;100.00
3697;BME280;60662;48.810;8.872;2024-01-25T09:59:44;55703.94;;;-145.49;100.00
3697;BME280;60662;48.810;8.872;2024-01-25T10:00:46;55703.94;;;-145.49;100.00
3697;BME280;60662;48.810;8.872;2024-01-25T10:01:48;55703.94;;;-145.49;100.00
3697;BME280;60662;48.810;8.872;2024-01-25T10:02:50;55703.94;;;-145.49;100.00
3697;BME280;60662;48.810;8.872;2024-01-25T10:03:52;55703.94;;;-145.49;100.00
3697;BME280;60662;48.810;8.872;2024-01-25T10:04:53;55703.94;;;-145.49;100.00
3697;BME280;60662;48.810;8.872;2024-01-25T10:05:55;55703.94;;;-145.49;100.00
3697;BME280;60662;48.810;8.872;2024-01-25T10:06:58;55703.94;;;-145.49;100.00
3697;BME280;60662;48.810;8.872;2024-01-25T10:08:00;55703.94;;;-145.49;100.00
3697;BME280;60662;48.810;8.872;2024-01-25T10:09:04;55703.94;;;-145.49;100.00
3697;BME280;60662;48.810;8.872;2024-01-25T10:10:06;55703.94;;;-145.49;100.00
3697;BME280;60662;48.810;8.872;2024-01-25T10:11:08;55703.94;;;-145.49;100.00
3697;BME280;60662;48.810;8.872;2024-01-25T10:12:10;55703.94;;;-145.49;100.00
3697;BME280;60662;48.810;8.872;2024-01-25T10:13:19;55703.94;;;-145.49;100.00
3697;BME280;60662;48.810;8.872;2024-01-25T10:14:21;55703.94;;;-145.49;100.00
3697;BME280;60662;48.810;8.872;2024-01-25T10:15:23;55703.94;;;-145.49;100.00
3697;BME280;60662;48.810;8.872;2024-01-25T10:16:25;55703.94;;;-145.49;100.00
3697;BME280;60662;48.810;8.872;2024-01-25T10:17:28;55703.94;;;-145.49;100.00
3697;BME280;60662;48.810;8.872;2024-01-25T10:18:50;55703.94;;;-145.49;100.00
3697;BME280;60662;48.810;8.872;2024-01-25T10:19:53;55703.94;;;-145.49;100.00
3697;BME280;60662;48.810;8.872;2024-01-25T10:20:55;55703.94;;;-145.49;100.00
3697;BME280;60662;48.810;8.872;2024-01-25T10:21:57;55703.94;;;-145.49;100.00
3697;BME280;60662;48.810;8.872;2024-01-25T10:22:59;55703.94;;;-145.49;100.00
3697;BME280;60662;48.810;8.872;2024-01-25T10:24:02;55703.94;;;-145.49;100.00
3697;BME280;60662;48.810;8.872;2024-01-25T10:25:12;55703.94;;;-145.49;100.00
3697;BME280;60662;48.810;8.872;2024-01-25T10:26:14;55703.94;;;-145.49;100.00
3697;BME280;60662;48.810;8.872;2024-01-25T10:27:17;55703.94;;;-145.49;100.00
3697;BME280;60662;48.810;8.872;2024-01-25T10:28:18;55703.94;;;-145.49;100.00
3697;BME280;60662;48.810;8.872;2024-01-25T10:29:20;55703.94;;;-145.49;100.00
3697;BME280;60662;48.810;8.872;2024-01-25T10:30:23;55703.94;;;-145.49;100.00
3697;BME280;60662;48.810;8.872;2024-01-25T10:31:25;55703.94;;;-145.49;100.00
3697;BME280;60662;48.810;8.872;2024-01-25T10:32:27;55703.94;;;-145.49;100.00
3697;BME280;60662;48.810;8.872;2024-01-25T10:33:28;55703.94;;;-145.49;100.00
3697;BME280;60662;48.810;8.872;2024-01-25T10:34:31;55703.94;;;-145.49;100.00
3697;BME280;60662;48.810;8.872;2024-01-25T10:35:36;55703.94;;;-145.49;100.00
3697;BME280;60662;48.810;8.872;2024-01-25T10:36:39;55703.94;;;-145.49;100.00
3697;BME280;60662;48.810;8.872;2024-01-25T10:37:41;55703.94;;;-145.49;100.00
3697;BME280;60662;48.810;8.872;2024-01-25T10:38:44;55703.94;;;-145.49;100.00
3697;BME280;60662;48.810;8.872;2024-01-25T10:39:46;55703.94;;;-145.49;100.00
3697;BME280;60662;48.810;8.872;2024-01-25T10:40:49;55703.94;;;-145.49;100.00
3697;BME280;60662;48.810;8.872;2024-01-25T10:41:51;55703.94;;;-145.49;100.00
3697;BME280;60662;48.810;8.872;2024-01-25T10:42:54;55703.94;;;-145.49;100.00
3697;BME280;60662;48.810;8.872;2024-01-25T10:43:55;55703.94;;;-145.49;100.00
3697;BME280;60662;48.810;8.872;2024-01-25T10:44:57;55703.94;;;-145.49;100.00
3697;BME280;60662;48.810;8.872;2024-01-25T10:45:59;55703.94;;;-145.49;100.00
3697;BME280;60662;48.810;8.872;2024-01-25T10:47:05;55703.94;;;-145.49;100.00
3697;BME280;60662;48.810;8.872;2024-01-25T10:48:07;55703.94;;;-145.49;100.00
3697;BME280;60662;48.810;8.872;2024-01-25T10:49:09;55703.94;;;-145.49;100.00
3697;BME280;60662;48.810;8.872;2024-01-25T10:50:12;55703.94;;;-145.49;100.00
3697;BME280;60662;48.810;8.872;2024-01-25T10:51:15;55703.94;;;-145.49;100.00
3697;BME280;60662;48.810;8.872;2024-01-25T10:52:20;55703.94;;;-145.49;100.00
3697;BME280;60662;48.810;8.872;2024-01-25T10:53:23;55703.94;;;-145.49;100.00
3697;BME280;60662;48.810;8.872;2024-01-25T10:54:25;55703.94;;;-145.49;100.00
3697;BME280;60662;48.810;8.872;2024-01-25T10:55:27;55703.94;;;-145.49;100.00
3697;BME280;60662;48.810;8.872;2024-01-25T10:56:29;55703.94;;;-145.49;100.00
3697;BME280;60662;48.810;8.872;2024-01-25T10:57:39;55703.94;;;-145.49;100.00
3697;BME280;60662;48.810;8.872;2024-01-25T10:58:41;55703.94;;;-145.49;100.00
3697;BME280;60662;48.810;8.872;2024-01-25T10:59:43;55703.94;;;-145.49;100.00
3697;BME280;60662;48.810;8.872;2024-01-25T11:00:54;55703.94;;;-145.49;100.00
3697;BME280;60662;48.810;8.872;2024-01-25T11:02:03;55703.94;;;-145.49;100.00
3697;BME280;60662;48.810;8.872;2024-01-25T11:03:06;55703.94;;;-145.49;100.00
3697;BME280;60662;48.810;8.872;2024-01-25T11:04:18;55703.94;;;-145.49;100.00
3697;BME280;60662;48.810;8.872;2024-01-25T11:05:23;55703.94;;;-145.49;100.00
3697;BME280;60662;48.810;8.872;2024-01-25T11:06:27;55703.94;;;-145.49;100.00
3697;BME280;60662;48.810;8.872;2024-01-25T11:07:28;55703.94;;;-145.49;100.00
3697;BME280;60662;48.810;8.872;2024-01-25T11:08:30;55703.94;;;-145.49;100.00
3697;BME280;60662;48.810;8.872;2024-01-25T11:09:32;55703.94;;;-145.49;100.00
3697;BME280;60662;48.810;8.872;2024-01-25T11:10:35;55703.94;;;-145.49;100.00
3697;BME280;60662;48.810;8.872;2024-01-25T11:11:37;55703.94;;;-145.49;100.00
3697;BME280;60662;48.810;8.872;2024-01-25T11:12:57;55703.94;;;-145.49;100.00
3697;BME280;60662;48.810;8.872;2024-01-25T11:14:00;55703.94;;;-145.49;100.00
3697;BME280;60662;48.810;8.872;2024-01-25T11:15:06;55703.94;;;-145.49;100.00
3697;BME280;60662;48.810;8.872;2024-01-25T11:16:21;55703.94;;;-145.49;100.00
3697;BME280;60662;48.810;8.872;2024-01-25T11:17:31;55703.94;;;-145.49;100.00
3697;BME280;60662;48.810;8.872;2024-01-25T11:18:34;55703.94;;;-145.49;100.00
3697;BME280;60662;48.810;8.872;2024-01-25T11:19:39;55703.94;;;-145.49;100.00
3697;BME280;60662;48.810;8.872;2024-01-25T11:20:40;55703.94;;;-145.49;100.00
3697;BME280;60662;48.810;8.872;2024-01-25T11:21:49;55703.94;;;-145.49;100.00
3697;BME280;60662;48.810;8.872;2024-01-25T11:22:59;55703.94;;;-145.49;100.00
3697;BME280;60662;48.810;8.872;2024-01-25T11:24:02;55703.94;;;-145.49;100.00
3697;BME280;60662;48.810;8.872;2024-01-25T11:25:13;55703.94;;;-145.49;100.00
3697;BME280;60662;48.810;8.872;2024-01-25T11:26:15;55703.94;;;-145.49;100.00
3697;BME280;60662;48.810;8.872;2024-01-25T11:27:17;55703.94;;;-145.49;100.00
3697;BME280;60662;48.810;8.872;2024-01-25T11:28:18;55703.94;;;-145.49;100.00
3697;BME280;60662;48.810;8.872;2024-01-25T11:29:21;55703.94;;;-145.49;100.00
3697;BME280;60662;48.810;8.872;2024-01-25T11:30:24;55703.94;;;-145.49;100.00
3697;BME280;60662;48.810;8.872;2024-01-25T11:31:27;55703.94;;;-145.49;100.00
3697;BME280;60662;48.810;8.872;2024-01-25T11:32:29;55703.94;;;-145.49;100.00
3697;BME280;60662;48.810;8.872;2024-01-25T11:33:31;55703.94;;;-145.49;100.00
3697;BME280;60662;48.810;8.872;2024-01-25T11:34:33;55703.94;;;-145.49;100.00
3697;BME280;60662;48.810;8.872;2024-01-25T11:35:35;55703.94;;;-145.49;100.00
3697;BME280;60662;48.810;8.872;2024-01-25T11:36:37;55703.94;;;-145.49;100.00
3697;BME280;60662;48.810;8.872;2024-01-25T11:37:39;55703.94;;;-145.49;100.00
3697;BME280;60662;48.810;8.872;2024-01-25T11:38:40;55703.94;;;-145.49;100.00
3697;BME280;60662;48.810;8.872;2024-01-25T11:39:43;55703.94;;;-145.49;100.00
3697;BME280;60662;48.810;8.872;2024-01-25T11:40:44;55703.94;;;-145.49;100.00
3697;BME280;60662;48.810;8.872;2024-01-25T11:41:46;55703.94;;;-145.49;100.00
3697;BME280;60662;48.810;8.872;2024-01-25T11:42:49;55703.94;;;-145.49;100.00
3697;BME280;60662;48.810;8.872;2024-01-25T11:43:52;55703.94;;;-145.49;100.00
3697;BME280;60662;48.810;8.872;2024-01-25T11:44:54;55703.94;;;-145.49;100.00
3697;BME280;60662;48.810;8.872;2024-01-25T11:45:55;55703.94;;;-145.49;100.00
3697;BME280;60662;48.810;8.872;2024-01-25T11:46:57;55703.94;;;-145.49;100.00
3697;BME280;60662;48.810;8.872;2024-01-25T11:47:58;55703.94;;;-145.49;100.00
3697;BME280;60662;48.810;8.872;2024-01-25T11:49:00;55703.94;;;-145.49;100.00
3697;BME280;60662;48.810;8.872;2024-01-25T11:50:03;55703.94;;;-145.49;100.00
3697;BME280;60662;48.810;8.872;2024-01-25T11:51:04;55703.94;;;-145.49;100.00
3697;BME280;60662;48.810;8.872;2024-01-25T11:52:06;55703.94;;;-145.49;100.00
3697;BME280;60662;48.810;8.872;2024-01-25T11:53:09;55703.94;;;-145.49;100.00
3697;BME280;60662;48.810;8.872;2024-01-25T11:54:11;55703.94;;;-145.49;100.00
3697;BME280;60662;48.810;8.872;2024-01-25T11:55:12;55703.94;;;-145.49;100.00
3697;BME280;60662;48.810;8.872;2024-01-25T11:56:17;55703.94;;;-145.49;100.00
3697;BME280;60662;48.810;8.872;2024-01-25T11:57:20;55703.94;;;-145.49;100.00
3697;BME280;60662;48.810;8.872;2024-01-25T11:58:23;55703.94;;;-145.49;100.00
3697;BME280;60662;48.810;8.872;2024-01-25T11:59:25;55703.94;;;-145.49;100.00
3697;BME280;60662;48.810;8.872;2024-01-25T12:00:26;55703.94;;;-145.49;100.00
3697;BME280;60662;48.810;8.872;2024-01-25T12:01:29;55703.94;;;-145.49;100.00
3697;BME280;60662;48.810;8.872;2024-01-25T12:02:31;55703.94;;;-145.49;100.00
3697;BME280;60662;48.810;8.872;2024-01-25T12:03:35;55703.94;;;-145.49;100.00
3697;BME280;60662;48.810;8.872;2024-01-25T12:04:40;55703.94;;;-145.49;100.00
3697;BME280;60662;48.810;8.872;2024-01-25T12:05:41;55703.94;;;-145.49;100.00
3697;BME280;60662;48.810;8.872;2024-01-25T12:06:44;55703.94;;;-145.49;100.00
3697;BME280;60662;48.810;8.872;2024-01-25T12:07:46;55703.94;;;-145.49;100.00
3697;BME280;60662;48.810;8.872;2024-01-25T12:08:48;55703.94;;;-145.49;100.00
3697;BME280;60662;48.810;8.872;2024-01-25T12:10:01;55703.94;;;-145.49;100.00
3697;BME280;60662;48.810;8.872;2024-01-25T12:11:08;55703.94;;;-145.49;100.00
3697;BME280;60662;48.810;8.872;2024-01-25T12:12:10;55703.94;;;-145.49;100.00
3697;BME280;60662;48.810;8.872;2024-01-25T12:13:12;55703.94;;;-145.49;100.00
3697;BME280;60662;48.810;8.872;2024-01-25T12:14:16;55703.94;;;-145.49;100.00
3697;BME280;60662;48.810;8.872;2024-01-25T12:15:17;55703.94;;;-145.49;100.00
3697;BME280;60662;48.810;8.872;2024-01-25T12:16:19;55703.94;;;-145.49;100.00
3697;BME280;60662;48.810;8.872;2024-01-25T12:17:21;55703.94;;;-145.49;100.00
3697;BME280;60662;48.810;8.872;2024-01-25T12:18:22;55703.94;;;-145.49;100.00
3697;BME280;60662;48.810;8.872;2024-01-25T12:19:24;55703.94;;;-145.49;100.00
3697;BME280;60662;48.810;8.872;2024-01-25T12:20:26;55703.94;;;-145.49;100.00
3697;BME280;60662;48.810;8.872;2024-01-25T12:21:28;55703.94;;;-145.49;100.00
3697;BME280;60662;48.810;8.872;2024-01-25T12:22:29;55703.94;;;-145.49;100.00
3697;BME280;60662;48.810;8.872;2024-01-25T12:23:35;55703.94;;;-145.49;100.00
3697;BME280;60662;48.810;8.872;2024-01-25T12:24:37;55703.94;;;-145.49;100.00
3697;BME280;60662;48.810;8.872;2024-01-25T12:25:41;55703.94;;;-145.49;100.00
3697;BME280;60662;48.810;8.872;2024-01-25T12:26:43;55703.94;;;-145.49;100.00
3697;BME280;60662;48.810;8.872;2024-01-25T12:27:47;55703.94;;;-145.49;100.00
3697;BME280;60662;48.810;8.872;2024-01-25T12:28:50;55703.94;;;-145.49;100.00
3697;BME280;60662;48.810;8.872;2024-01-25T12:29:53;55703.94;;;-145.49;100.00
3697;BME280;60662;48.810;8.872;2024-01-25T12:30:58;55703.94;;;-145.49;100.00
3697;BME280;60662;48.810;8.872;2024-01-25T12:32:00;55703.94;;;-145.49;100.00
3697;BME280;60662;48.810;8.872;2024-01-25T12:33:08;55703.94;;;-145.49;100.00
3697;BME280;60662;48.810;8.872;2024-01-25T12:34:15;55703.94;;;-145.49;100.00
3697;BME280;60662;48.810;8.872;2024-01-25T12:35:18;55703.94;;;-145.49;100.00
3697;BME280;60662;48.810;8.872;2024-01-25T12:36:20;55703.94;;;-145.49;100.00
3697;BME280;60662;48.810;8.872;2024-01-25T12:37:21;55703.94;;;-145.49;100.00
3697;BME280;60662;48.810;8.872;2024-01-25T12:38:23;55703.94;;;-145.49;100.00
3697;BME280;60662;48.810;8.872;2024-01-25T12:39:25;55703.94;;;-145.49;100.00
3697;BME280;60662;48.810;8.872;2024-01-25T12:40:27;55703.94;;;-145.49;100.00
3697;BME280;60662;48.810;8.872;2024-01-25T12:41:28;55703.94;;;-145.49;100.00
3697;BME280;60662;48.810;8.872;2024-01-25T12:42:30;55703.94;;;-145.49;100.00
3697;BME280;60662;48.810;8.872;2024-01-25T12:43:32;55703.94;;;-145.49;100.00
3697;BME280;60662;48.810;8.872;2024-01-25T12:44:34;55703.94;;;-145.49;100.00
3697;BME280;60662;48.810;8.872;2024-01-25T12:45:37;55703.94;;;-145.49;100.00
3697;BME280;60662;48.810;8.872;2024-01-25T12:46:39;55703.94;;;-145.49;100.00
3697;BME280;60662;48.810;8.872;2024-01-25T12:47:41;55703.94;;;-145.49;100.00
3697;BME280;60662;48.810;8.872;2024-01-25T12:48:42;55703.94;;;-145.49;100.00
3697;BME280;60662;48.810;8.872;2024-01-25T12:49:46;55703.94;;;-145.49;100.00
3697;BME280;60662;48.810;8.872;2024-01-25T12:50:50;55703.94;;;-145.49;100.00
3697;BME280;60662;48.810;8.872;2024-01-25T12:51:52;55703.94;;;-145.49;100.00
3697;BME280;60662;48.810;8.872;2024-01-25T12:52:54;55703.94;;;-145.49;100.00
3697;BME280;60662;48.810;8.872;2024-01-25T12:53:56;55703.94;;;-145.49;100.00
3697;BME280;60662;48.810;8.872;2024-01-25T12:54:58;55703.94;;;-145.49;100.00
3697;BME280;60662;48.810;8.872;2024-01-25T12:56:00;55703.94;;;-145.49;100.00
3697;BME280;60662;48.810;8.872;2024-01-25T12:57:01;55703.94;;;-145.49;100.00
3697;BME280;60662;48.810;8.872;2024-01-25T12:58:04;55703.94;;;-145.49;100.00
3697;BME280;60662;48.810;8.872;2024-01-25T12:59:05;55703.94;;;-145.49;100.00
3697;BME280;60662;48.810;8.872;2024-01-25T13:00:07;55703.94;;;-145.49;100.00
3697;BME280;60662;48.810;8.872;2024-01-25T13:01:09;55703.94;;;-145.49;100.00
3697;BME280;60662;48.810;8.872;2024-01-25T13:02:12;55703.94;;;-145.49;100.00
3697;BME280;60662;48.810;8.872;2024-01-25T13:03:13;55703.94;;;-145.49;100.00
3697;BME280;60662;48.810;8.872;2024-01-25T13:04:16;55703.94;;;-145.49;100.00
3697;BME280;60662;48.810;8.872;2024-01-25T13:05:18;55703.94;;;-145.49;100.00
3697;BME280;60662;48.810;8.872;2024-01-25T13:06:20;55703.94;;;-145.49;100.00
3697;BME280;60662;48.810;8.872;2024-01-25T13:07:21;55703.94;;;-145.49;100.00